Terminal Aerodrome Forecast
Issued by NWS

Home | Current Version | Previous Version | Graphics & Text | Print | Product List | Glossary On
Versions: 1 2 3 4 5 6 7 8 9 10 11 12 13 14 15 16 17 18 19
694
FTUS43 KBIS 161513 AAC
TAFMOT
TAF AMD
KMOT 161513Z 1615/1712 12014KT P6SM OVC005
     FM161600 12015G23KT P6SM OVC008
     FM161700 13016G24KT P6SM OVC070
     FM170300 19008KT P6SM BKN090
     FM170800 27011KT P6SM SCT200=

USA.gov is the U.S. government's official web portal to all federal, state and local government web resources and services.